Time;durP1;ratioP1;P1;durP2;ratioP2;P2;SDS_P1;SDS_P2;PMS_P1;PMS_P2;Temp;Humidity;BMP_temperature;BMP_pressure;BME280_temperature;BME280_humidity;BME280_pressure;Samples;Min_cycle;Max_cycle;Signal;HPM_P1;HPM_P2
2022/03/26 00:00:03;;;;;;;2.03;1.27;;;9.60;58.70;;;;;;5114683;28;20067;-69
2022/03/26 00:02:29;;;;;;;2.00;1.25;;;9.60;58.70;;;;;;5114292;28;20043;-69
2022/03/26 00:04:55;;;;;;;3.38;1.40;;;9.60;58.80;;;;;;5113991;28;20065;-70
2022/03/26 00:07:21;;;;;;;1.88;1.10;;;9.50;58.80;;;;;;5095599;28;20044;-69
2022/03/26 00:09:47;;;;;;;1.48;1.02;;;9.50;58.80;;;;;;5095916;28;20050;-69
2022/03/26 00:12:13;;;;;;;2.35;1.38;;;9.50;58.80;;;;;;5114411;28;20044;-69
2022/03/26 00:14:38;;;;;;;2.10;1.23;;;9.50;58.90;;;;;;5095969;28;20063;-69
2022/03/26 00:17:04;;;;;;;3.30;1.50;;;9.50;59.00;;;;;;5114058;28;20119;-69
2022/03/26 00:19:30;;;;;;;2.40;1.48;;;9.40;59.00;;;;;;5095543;28;20093;-69
2022/03/26 00:21:56;;;;;;;2.92;1.42;;;9.40;59.00;;;;;;5113743;28;20043;-69
2022/03/26 00:24:22;;;;;;;2.47;1.42;;;9.40;59.10;;;;;;5114109;28;20393;-69
2022/03/26 00:26:48;;;;;;;2.33;1.15;;;9.30;59.10;;;;;;5114267;28;20054;-69
2022/03/26 00:29:14;;;;;;;2.95;1.30;;;9.40;59.10;;;;;;5113992;28;20417;-70
2022/03/26 00:31:40;;;;;;;3.33;1.50;;;9.40;59.20;;;;;;5113910;28;20078;-69
2022/03/26 00:34:07;;;;;;;3.55;1.55;;;9.30;59.10;;;;;;5113538;28;20050;-69
2022/03/26 00:36:32;;;;;;;4.65;1.52;;;9.40;59.20;;;;;;5113862;28;20039;-69
2022/03/26 00:38:58;;;;;;;2.38;1.30;;;9.30;59.20;;;;;;5095034;28;20389;-70
2022/03/26 00:41:24;;;;;;;3.05;1.40;;;9.30;59.30;;;;;;5113554;28;20067;-69
2022/03/26 00:43:50;;;;;;;2.80;1.50;;;9.30;59.30;;;;;;5093579;28;20040;-69
2022/03/26 00:46:16;;;;;;;2.22;1.33;;;9.20;59.30;;;;;;5078284;28;20047;-69
2022/03/26 00:48:43;;;;;;;2.88;1.48;;;9.30;59.40;;;;;;5113819;28;20496;-69
2022/03/26 00:51:08;;;;;;;2.42;1.20;;;9.20;59.30;;;;;;5112737;28;20537;-69
2022/03/26 00:53:34;;;;;;;2.20;1.10;;;9.20;59.40;;;;;;5113513;28;20122;-69
2022/03/26 00:56:00;;;;;;;3.83;1.70;;;9.20;59.50;;;;;;5113670;28;20396;-69
2022/03/26 00:58:26;;;;;;;2.92;1.58;;;9.10;59.50;;;;;;5113222;28;20172;-69
2022/03/26 01:00:52;;;;;;;1.75;1.20;;;9.10;59.60;;;;;;5113786;28;20040;-69
2022/03/26 01:03:18;;;;;;;2.30;1.23;;;9.10;59.60;;;;;;5113452;28;20577;-69
2022/03/26 01:05:58;;;;;;;2.83;1.65;;;9.10;59.80;;;;;;5077951;28;20131;-69
2022/03/26 01:08:24;;;;;;;2.80;1.42;;;9.10;59.80;;;;;;5112953;28;20067;-68
2022/03/26 01:10:49;;;;;;;2.83;1.48;;;9.00;59.80;;;;;;5113435;28;20556;-68
2022/03/26 01:13:16;;;;;;;3.72;1.70;;;9.00;60.00;;;;;;5113400;28;20071;-69
2022/03/26 01:15:42;;;;;;;3.05;1.50;;;9.00;59.90;;;;;;5113198;28;20400;-69
2022/03/26 01:18:09;;;;;;;2.80;1.38;;;8.90;59.90;;;;;;5113152;28;20038;-69
2022/03/26 01:20:34;;;;;;;1.95;1.20;;;8.90;60.00;;;;;;5112798;28;20039;-69
2022/03/26 01:23:00;;;;;;;3.25;1.60;;;8.90;60.00;;;;;;5113227;28;20478;-69
2022/03/26 01:25:26;;;;;;;3.10;1.50;;;8.90;60.10;;;;;;5113297;28;20043;-69
2022/03/26 01:27:52;;;;;;;4.05;1.73;;;8.90;60.20;;;;;;5113474;28;20038;-69
2022/03/26 01:30:18;;;;;;;2.60;1.35;;;8.80;60.10;;;;;;5113193;28;20050;-69
2022/03/26 01:32:44;;;;;;;2.83;1.45;;;8.80;60.80;;;;;;5112599;28;20052;-70
2022/03/26 01:35:11;;;;;;;3.10;1.58;;;8.80;60.30;;;;;;5112616;28;20118;-69
2022/03/26 01:37:37;;;;;;;2.55;1.23;;;8.80;60.40;;;;;;5113187;28;20040;-69
2022/03/26 01:40:04;;;;;;;2.67;1.35;;;8.70;60.30;;;;;;5113022;28;20493;-69
2022/03/26 01:42:31;;;;;;;3.60;1.40;;;8.70;60.40;;;;;;5112843;28;20115;-68
2022/03/26 01:44:57;;;;;;;3.05;1.45;;;8.80;60.50;;;;;;5112746;28;20035;-68
2022/03/26 01:47:23;;;;;;;2.50;1.20;;;8.70;60.60;;;;;;5112630;28;20048;-69
2022/03/26 01:49:50;;;;;;;2.53;1.15;;;8.70;60.60;;;;;;5112613;28;20060;-68
2022/03/26 01:52:16;;;;;;;2.97;1.60;;;8.70;60.70;;;;;;5094138;28;20044;-69
2022/03/26 01:54:43;;;;;;;3.85;1.60;;;8.60;60.70;;;;;;5094251;28;20385;-68
2022/03/26 01:57:10;;;;;;;2.83;1.58;;;8.60;60.80;;;;;;5112541;28;20449;-69
2022/03/26 01:59:37;;;;;;;2.80;1.48;;;8.60;60.80;;;;;;5094254;28;20039;-68
2022/03/26 02:02:05;;;;;;;3.05;1.55;;;8.60;60.80;;;;;;5112569;28;20426;-68
2022/03/26 02:04:34;;;;;;;4.13;1.98;;;8.50;60.80;;;;;;5112591;28;20050;-68
2022/03/26 02:07:02;;;;;;;2.35;1.50;;;8.50;60.90;;;;;;5112262;28;20519;-69
2022/03/26 02:09:33;;;;;;;2.97;1.40;;;8.50;61.00;;;;;;5112315;28;20126;-69
2022/03/26 02:11:59;;;;;;;2.58;1.33;;;8.40;61.00;;;;;;5112217;28;20396;-69
2022/03/26 02:14:25;;;;;;;2.42;1.20;;;8.40;61.10;;;;;;5112402;28;20108;-68
2022/03/26 02:16:52;;;;;;;2.85;1.20;;;8.40;61.20;;;;;;5112551;28;20039;-68
2022/03/26 02:19:20;;;;;;;2.05;0.90;;;8.40;61.20;;;;;;5112083;28;20038;-68
2022/03/26 02:21:49;;;;;;;2.22;1.20;;;8.40;61.30;;;;;;5112382;28;20050;-67
2022/03/26 02:24:15;;;;;;;2.47;1.30;;;8.20;61.30;;;;;;5112255;28;20546;-67
2022/03/26 02:26:41;;;;;;;1.23;0.93;;;8.30;61.40;;;;;;5112257;28;20485;-70
2022/03/26 02:29:10;;;;;;;1.80;0.90;;;8.20;61.40;;;;;;5112329;28;20051;-67
2022/03/26 02:31:37;;;;;;;1.85;1.20;;;8.20;61.50;;;;;;5112403;28;20389;-68
2022/03/26 02:34:05;;;;;;;1.85;1.10;;;8.20;61.70;;;;;;5112085;28;20040;-67
2022/03/26 02:36:31;;;;;;;2.15;1.20;;;8.10;61.70;;;;;;5093984;28;20431;-69
2022/03/26 02:38:57;;;;;;;1.50;0.90;;;8.10;61.90;;;;;;5112342;28;20032;-70
2022/03/26 02:41:23;;;;;;;2.05;1.10;;;8.00;61.90;;;;;;5112019;28;20047;-70
2022/03/26 02:43:49;;;;;;;1.88;1.00;;;7.90;62.10;;;;;;5111976;28;20047;-70
2022/03/26 02:46:15;;;;;;;1.83;0.90;;;7.80;62.20;;;;;;5111798;28;20050;-67
2022/03/26 02:48:42;;;;;;;1.90;1.05;;;7.80;62.30;;;;;;5093816;28;20047;-70
2022/03/26 02:51:08;;;;;;;2.20;1.17;;;7.70;62.50;;;;;;5092525;28;20075;-70
2022/03/26 02:53:34;;;;;;;1.77;1.05;;;7.70;62.70;;;;;;5111841;28;20040;-67
2022/03/26 02:56:00;;;;;;;2.50;1.15;;;7.50;62.70;;;;;;5111825;28;20439;-67
2022/03/26 02:58:26;;;;;;;1.67;0.90;;;7.50;62.90;;;;;;5112214;28;20043;-70
2022/03/26 03:00:52;;;;;;;1.58;1.00;;;7.50;63.00;;;;;;5111602;28;20040;-67
2022/03/26 03:03:18;;;;;;;2.05;1.00;;;7.40;63.10;;;;;;5111732;28;20040;-70
2022/03/26 03:05:46;;;;;;;1.63;0.90;;;7.40;63.20;;;;;;5111713;28;20042;-70
2022/03/26 03:08:14;;;;;;;2.05;1.10;;;7.30;63.20;;;;;;5111667;28;20067;-69
2022/03/26 03:10:42;;;;;;;1.48;1.00;;;7.30;63.30;;;;;;5111344;28;20043;-69
2022/03/26 03:13:09;;;;;;;1.45;1.00;;;7.30;63.40;;;;;;5111778;28;20131;-69
2022/03/26 03:15:35;;;;;;;2.03;0.93;;;7.20;63.40;;;;;;5113946;28;20078;-69
2022/03/26 03:18:02;;;;;;;1.75;1.05;;;7.10;63.40;;;;;;5115124;28;20385;-69
2022/03/26 03:20:29;;;;;;;1.30;0.95;;;7.10;63.60;;;;;;5115159;28;20055;-70
2022/03/26 03:22:57;;;;;;;1.80;1.10;;;7.10;63.70;;;;;;5115169;28;20070;-70
2022/03/26 03:25:26;;;;;;;1.45;1.00;;;7.00;63.80;;;;;;5095431;28;20203;-69
2022/03/26 03:27:52;;;;;;;1.67;0.98;;;6.90;63.80;;;;;;5115263;28;20096;-69
2022/03/26 03:30:18;;;;;;;1.95;1.00;;;6.90;63.90;;;;;;5114770;28;20119;-69
2022/03/26 03:32:44;;;;;;;1.60;0.98;;;6.90;64.00;;;;;;5114453;28;20048;-69
2022/03/26 03:35:11;;;;;;;1.80;0.95;;;6.80;63.90;;;;;;5114854;28;20038;-69
2022/03/26 03:37:38;;;;;;;1.35;0.80;;;6.80;64.00;;;;;;5115065;28;20092;-69
2022/03/26 03:40:05;;;;;;;1.73;1.10;;;6.70;64.10;;;;;;5115160;28;20384;-69
2022/03/26 03:42:31;;;;;;;1.67;0.93;;;6.70;64.10;;;;;;5114534;28;20051;-69
2022/03/26 03:44:57;;;;;;;1.38;1.00;;;6.70;64.20;;;;;;5114853;28;20047;-69
2022/03/26 03:47:23;;;;;;;1.83;1.00;;;6.70;64.20;;;;;;5114428;28;20040;-70
2022/03/26 03:49:49;;;;;;;2.47;1.23;;;6.60;64.20;;;;;;5114678;28;20031;-70
2022/03/26 03:52:16;;;;;;;2.50;1.20;;;6.70;64.30;;;;;;5114430;28;20043;-69
2022/03/26 03:54:41;;;;;;;3.35;1.30;;;6.50;64.40;;;;;;5114856;28;20114;-70
2022/03/26 03:57:07;;;;;;;1.70;1.08;;;6.40;64.50;;;;;;5114355;28;20127;-70
2022/03/26 03:59:33;;;;;;;2.75;1.23;;;6.40;64.70;;;;;;5095761;28;20040;-69
2022/03/26 04:01:58;;;;;;;2.05;1.00;;;6.40;65.40;;;;;;5114740;28;20089;-69
2022/03/26 04:04:24;;;;;;;1.98;0.98;;;6.30;64.80;;;;;;5114570;28;20048;-69
2022/03/26 04:06:50;;;;;;;1.60;0.95;;;6.30;64.80;;;;;;5114129;28;20043;-69
2022/03/26 04:09:16;;;;;;;2.80;1.20;;;6.30;64.90;;;;;;5114216;28;20047;-69
2022/03/26 04:11:42;;;;;;;1.10;0.90;;;6.20;64.90;;;;;;5114316;28;20044;-69
2022/03/26 04:14:07;;;;;;;1.52;0.82;;;6.20;65.00;;;;;;5114144;28;20028;-69
2022/03/26 04:16:33;;;;;;;1.73;1.00;;;6.10;65.00;;;;;;5114220;28;20044;-70
2022/03/26 04:18:59;;;;;;;1.75;1.10;;;6.10;65.10;;;;;;5114021;28;20075;-69
2022/03/26 04:21:25;;;;;;;1.15;0.80;;;6.10;65.10;;;;;;5113794;28;20047;-69
2022/03/26 04:23:51;;;;;;;1.50;1.10;;;6.10;65.20;;;;;;5095636;28;20138;-69
2022/03/26 04:26:17;;;;;;;1.70;1.00;;;6.00;65.30;;;;;;5113608;28;20063;-69
2022/03/26 04:28:43;;;;;;;1.55;0.93;;;6.00;65.40;;;;;;5094318;28;20040;-69
2022/03/26 04:31:09;;;;;;;2.15;0.90;;;6.00;65.50;;;;;;5113905;28;20114;-69
2022/03/26 04:33:35;;;;;;;1.55;1.08;;;5.90;65.50;;;;;;5095301;28;20046;-69
2022/03/26 04:36:02;;;;;;;1.33;0.80;;;5.90;65.60;;;;;;5095105;28;20046;-69
2022/03/26 04:38:28;;;;;;;2.22;1.10;;;5.80;65.60;;;;;;5113619;28;20094;-69
2022/03/26 04:40:54;;;;;;;2.33;1.17;;;5.80;65.80;;;;;;5113883;28;20036;-70
2022/03/26 04:43:21;;;;;;;2.78;1.10;;;5.70;65.80;;;;;;5113460;28;20042;-69
2022/03/26 04:45:47;;;;;;;2.53;1.27;;;5.70;65.90;;;;;;5095595;28;20038;-69
2022/03/26 04:48:13;;;;;;;2.28;1.20;;;5.70;66.00;;;;;;5113734;28;20069;-70
2022/03/26 04:50:39;;;;;;;2.38;1.23;;;5.60;66.10;;;;;;5113650;28;20370;-69
2022/03/26 04:53:05;;;;;;;1.90;0.80;;;5.60;66.20;;;;;;5113645;28;20488;-69
2022/03/26 04:55:31;;;;;;;1.50;1.00;;;5.60;66.30;;;;;;5113331;28;20124;-69
2022/03/26 04:57:57;;;;;;;2.03;1.30;;;5.50;66.30;;;;;;5113368;28;20088;-70
2022/03/26 05:00:23;;;;;;;2.20;1.20;;;5.50;66.40;;;;;;5078670;28;20055;-69
2022/03/26 05:02:49;;;;;;;2.47;1.17;;;5.50;66.50;;;;;;5113821;28;20039;-70
2022/03/26 05:05:15;;;;;;;2.50;1.15;;;5.50;66.50;;;;;;5093427;28;20048;-69
2022/03/26 05:07:48;;;;;;;2.00;0.90;;;5.50;66.60;;;;;;5095192;28;20040;-70
2022/03/26 05:10:24;;;;;;;2.22;0.98;;;5.40;66.60;;;;;;5114050;28;20481;-69
2022/03/26 05:12:51;;;;;;;2.38;0.95;;;5.40;66.60;;;;;;5113747;28;20039;-69
2022/03/26 05:15:21;;;;;;;1.60;1.00;;;5.40;66.60;;;;;;5113875;28;20040;-69
2022/03/26 05:17:47;;;;;;;2.25;1.20;;;5.40;66.70;;;;;;5113921;28;20090;-69
2022/03/26 05:20:13;;;;;;;1.92;1.00;;;5.30;66.70;;;;;;5095025;28;20044;-69
2022/03/26 05:22:40;;;;;;;1.98;1.00;;;5.30;66.80;;;;;;5113169;28;20051;-69
2022/03/26 05:25:06;;;;;;;1.83;1.20;;;5.30;66.90;;;;;;5113301;28;20093;-69
2022/03/26 05:27:33;;;;;;;1.77;1.08;;;5.30;67.00;;;;;;5113740;28;20028;-70
2022/03/26 05:29:59;;;;;;;1.88;0.95;;;5.30;67.10;;;;;;5095589;28;20046;-69
2022/03/26 05:32:25;;;;;;;2.45;1.23;;;5.30;67.20;;;;;;5113078;28;20050;-70
2022/03/26 05:34:51;;;;;;;2.10;1.00;;;5.20;67.20;;;;;;5113094;28;20127;-69
2022/03/26 05:37:18;;;;;;;1.92;1.10;;;5.20;67.30;;;;;;5094635;28;20444;-69
2022/03/26 05:39:44;;;;;;;1.23;0.88;;;5.10;67.20;;;;;;5113289;28;20059;-69
2022/03/26 05:42:10;;;;;;;2.28;0.93;;;5.10;67.30;;;;;;5112696;28;20461;-70
2022/03/26 05:44:36;;;;;;;1.88;1.08;;;5.10;67.30;;;;;;5113193;28;20043;-69
2022/03/26 05:47:03;;;;;;;1.10;1.00;;;5.10;67.20;;;;;;5112878;28;20397;-69
2022/03/26 05:49:29;;;;;;;2.40;0.90;;;5.20;67.30;;;;;;5113401;28;20044;-69
2022/03/26 05:51:55;;;;;;;2.20;1.10;;;5.10;67.20;;;;;;5113439;28;20481;-69
2022/03/26 05:54:21;;;;;;;2.33;1.13;;;5.10;67.20;;;;;;5112785;28;20120;-69
2022/03/26 05:56:54;;;;;;;1.45;1.00;;;5.10;67.40;;;;;;5061084;28;20161;-68
2022/03/26 05:59:23;;;;;;;1.00;0.80;;;5.10;67.40;;;;;;5112790;28;20055;-69
2022/03/26 06:01:50;;;;;;;2.15;1.10;;;5.10;67.50;;;;;;5112494;28;20381;-68
2022/03/26 06:04:17;;;;;;;1.92;1.08;;;5.20;67.50;;;;;;5094884;28;20045;-69
2022/03/26 06:06:43;;;;;;;1.13;0.82;;;5.10;67.50;;;;;;5094391;28;20047;-70
2022/03/26 06:09:10;;;;;;;2.25;1.20;;;5.20;67.50;;;;;;5112735;28;20043;-69
2022/03/26 06:11:36;;;;;;;1.58;1.10;;;5.20;67.40;;;;;;5112556;28;20047;-69
2022/03/26 06:14:03;;;;;;;2.30;1.13;;;5.20;67.40;;;;;;5112382;28;20090;-70
2022/03/26 06:16:28;;;;;;;2.63;1.33;;;5.40;67.50;;;;;;5094153;28;20069;-70
2022/03/26 06:18:54;;;;;;;1.75;1.13;;;5.30;67.40;;;;;;5112800;28;20497;-70
2022/03/26 06:21:20;;;;;;;2.22;1.30;;;5.30;67.40;;;;;;5112334;28;20093;-69
2022/03/26 06:23:46;;;;;;;2.75;1.20;;;5.40;67.40;;;;;;5094237;28;20129;-70
2022/03/26 06:26:12;;;;;;;2.10;1.15;;;5.40;67.40;;;;;;5112286;28;20056;-69
2022/03/26 06:28:38;;;;;;;1.88;1.05;;;5.50;67.30;;;;;;5112440;28;20070;-69
2022/03/26 06:31:04;;;;;;;1.70;0.90;;;5.60;67.20;;;;;;5112023;28;20105;-69
2022/03/26 06:33:30;;;;;;;2.03;1.08;;;5.60;67.10;;;;;;5112165;28;20032;-69
2022/03/26 06:35:56;;;;;;;1.45;0.93;;;5.70;67.00;;;;;;5112116;28;20169;-69
2022/03/26 06:38:21;;;;;;;2.15;1.20;;;5.80;67.00;;;;;;5112533;28;20040;-69
2022/03/26 06:40:48;;;;;;;1.67;1.17;;;5.90;66.80;;;;;;5094140;28;20040;-69
2022/03/26 06:43:14;;;;;;;1.80;0.90;;;6.00;66.80;;;;;;5094684;28;20043;-69
2022/03/26 06:45:40;;;;;;;1.35;0.88;;;6.00;66.70;;;;;;5112340;28;20050;-69
2022/03/26 06:48:07;;;;;;;1.33;0.90;;;6.20;66.70;;;;;;5112612;28;20044;-69
2022/03/26 06:50:33;;;;;;;1.83;1.00;;;6.20;66.60;;;;;;5114449;28;20034;-69
2022/03/26 06:52:59;;;;;;;1.20;0.77;;;6.30;66.50;;;;;;5115886;28;20032;-69
2022/03/26 06:55:25;;;;;;;2.25;1.10;;;6.40;66.50;;;;;;5097633;28;20455;-69
2022/03/26 06:57:51;;;;;;;1.83;1.00;;;6.50;66.40;;;;;;5115640;28;20103;-69
2022/03/26 07:00:18;;;;;;;1.77;1.00;;;6.60;66.30;;;;;;5115179;28;20036;-69
2022/03/26 07:02:44;;;;;;;3.13;1.10;;;6.70;66.20;;;;;;5115741;28;20041;-69
2022/03/26 07:05:11;;;;;;;2.45;1.23;;;6.80;66.20;;;;;;5080521;28;20063;-69
2022/03/26 07:07:37;;;;;;;1.38;0.90;;;6.80;66.00;;;;;;5115285;28;20040;-69
2022/03/26 07:10:04;;;;;;;2.58;1.30;;;7.00;66.00;;;;;;5115900;28;20385;-70
2022/03/26 07:12:30;;;;;;;3.83;1.50;;;7.00;65.90;;;;;;5115647;28;20040;-69
2022/03/26 07:14:57;;;;;;;2.45;1.50;;;7.10;65.80;;;;;;5115093;28;20551;-69
2022/03/26 07:17:23;;;;;;;2.58;1.38;;;7.20;65.70;;;;;;5115595;28;20765;-69
2022/03/26 07:19:49;;;;;;;3.28;1.40;;;7.30;65.60;;;;;;5115499;28;20070;-69
2022/03/26 07:22:14;;;;;;;3.30;1.58;;;7.50;65.60;;;;;;5115496;28;20442;-69
2022/03/26 07:24:40;;;;;;;3.13;1.40;;;7.50;65.40;;;;;;5115295;28;20051;-69
2022/03/26 07:27:06;;;;;;;2.45;1.33;;;7.70;65.40;;;;;;5114958;28;20456;-69
2022/03/26 07:29:33;;;;;;;2.50;1.33;;;7.80;65.30;;;;;;5096928;28;20043;-69
2022/03/26 07:31:59;;;;;;;3.78;1.52;;;7.90;65.20;;;;;;5115028;28;20050;-69
2022/03/26 07:34:26;;;;;;;3.22;1.58;;;8.10;65.10;;;;;;5114710;28;20040;-70
2022/03/26 07:36:52;;;;;;;3.08;1.55;;;8.10;65.00;;;;;;5115286;28;20032;-69
2022/03/26 07:39:18;;;;;;;3.70;1.48;;;8.30;64.90;;;;;;5114721;28;20127;-70
2022/03/26 07:41:44;;;;;;;3.72;1.42;;;8.40;64.70;;;;;;5096864;28;20504;-69
2022/03/26 07:44:10;;;;;;;2.63;1.40;;;8.50;64.60;;;;;;5115187;28;20035;-69
2022/03/26 07:46:36;;;;;;;2.75;1.48;;;8.60;64.40;;;;;;5114995;28;20052;-70
2022/03/26 07:49:02;;;;;;;3.42;1.75;;;8.80;64.30;;;;;;5114814;28;20130;-69
2022/03/26 07:51:28;;;;;;;3.80;1.70;;;9.00;64.10;;;;;;5114630;28;20134;-69
2022/03/26 07:53:54;;;;;;;5.55;2.13;;;9.20;64.00;;;;;;5114743;28;20485;-69
2022/03/26 07:56:19;;;;;;;4.18;1.90;;;9.30;63.70;;;;;;5097086;28;20039;-70
2022/03/26 07:58:47;;;;;;;4.88;2.35;;;9.50;63.50;;;;;;5114605;28;20132;-70
2022/03/26 08:01:12;;;;;;;5.75;2.30;;;9.70;63.40;;;;;;5113823;28;20040;-70
2022/03/26 08:03:38;;;;;;;3.40;1.85;;;9.90;63.10;;;;;;5051757;28;20028;-70
2022/03/26 08:06:04;;;;;;;4.13;1.90;;;10.00;62.90;;;;;;5051994;28;20049;-70
2022/03/26 08:08:30;;;;;;;4.13;1.90;;;10.20;62.80;;;;;;5035361;28;20045;-69
2022/03/26 08:10:55;;;;;;;4.10;2.00;;;10.40;62.70;;;;;;5051904;28;20052;-70
2022/03/26 08:13:21;;;;;;;4.55;2.05;;;10.60;62.50;;;;;;5051806;28;20074;-70
2022/03/26 08:15:47;;;;;;;3.80;1.52;;;10.70;62.30;;;;;;5052156;28;20033;-70
2022/03/26 08:18:13;;;;;;;5.07;2.20;;;11.00;62.20;;;;;;5051520;28;20079;-70
2022/03/26 08:20:38;;;;;;;6.88;2.90;;;11.20;61.90;;;;;;5051560;28;20490;-70
2022/03/26 08:23:04;;;;;;;4.95;2.47;;;11.40;61.60;;;;;;5034731;28;20045;-70
2022/03/26 08:28:11;;;;;;;5.93;2.65;;;11.60;61.20;;;;;;5049949;28;20106;-70
2022/03/26 08:30:37;;;;;;;4.78;2.35;;;11.90;61.20;;;;;;5051145;28;20051;-70
2022/03/26 08:33:04;;;;;;;4.70;2.53;;;12.00;61.00;;;;;;5034685;28;20049;-70
2022/03/26 08:35:39;;;;;;;4.53;2.28;;;12.20;60.90;;;;;;5105680;28;20044;-70
2022/03/26 08:38:06;;;;;;;5.30;2.38;;;12.40;60.80;;;;;;5114282;28;20035;-70
2022/03/26 08:40:32;;;;;;;4.75;2.20;;;12.60;60.70;;;;;;5113786;28;20043;-70
2022/03/26 08:42:59;;;;;;;4.82;2.40;;;12.70;60.50;;;;;;5114371;28;20465;-70
2022/03/26 08:45:26;;;;;;;4.30;1.80;;;12.90;60.50;;;;;;5113758;28;20063;-70
2022/03/26 08:47:52;;;;;;;3.92;2.10;;;13.00;60.30;;;;;;5114152;28;20396;-70
2022/03/26 08:50:18;;;;;;;4.50;2.28;;;13.20;60.20;;;;;;5095571;28;20052;-70
2022/03/26 08:52:47;;;;;;;4.05;2.00;;;13.40;60.10;;;;;;5113719;28;20043;-69
2022/03/26 08:55:12;;;;;;;4.15;2.15;;;13.50;60.00;;;;;;5113638;28;20139;-69
2022/03/26 08:57:38;;;;;;;3.97;1.73;;;13.70;60.00;;;;;;5113654;28;20481;-69
2022/03/26 09:00:04;;;;;;;5.10;2.63;;;13.80;59.90;;;;;;5113718;28;20075;-70
2022/03/26 09:02:30;;;;;;;4.85;2.60;;;13.90;59.80;;;;;;5113595;28;20044;-70
2022/03/26 09:04:56;;;;;;;4.25;2.22;;;14.10;59.70;;;;;;5114011;28;20039;-70
2022/03/26 09:07:22;;;;;;;4.60;2.42;;;14.20;59.50;;;;;;5114194;28;20035;-70
2022/03/26 09:09:48;;;;;;;3.80;2.20;;;14.30;59.40;;;;;;5114054;28;20176;-70
2022/03/26 09:12:14;;;;;;;4.10;2.30;;;14.50;60.10;;;;;;5112619;28;20040;-70
2022/03/26 09:14:40;;;;;;;4.60;2.20;;;14.50;59.40;;;;;;5113139;28;20040;-70
2022/03/26 09:17:06;;;;;;;3.97;2.22;;;14.70;59.40;;;;;;5113776;28;20039;-70
2022/03/26 09:19:31;;;;;;;4.97;2.50;;;14.80;59.40;;;;;;5113246;28;20389;-70
2022/03/26 09:21:58;;;;;;;5.05;2.30;;;14.90;59.40;;;;;;5113955;28;20185;-69
2022/03/26 09:24:24;;;;;;;4.15;2.45;;;15.00;59.20;;;;;;5113913;28;20119;-69
2022/03/26 09:26:49;;;;;;;4.60;2.30;;;15.00;59.20;;;;;;5113203;28;20067;-69
2022/03/26 09:29:16;;;;;;;4.13;2.30;;;15.10;59.20;;;;;;5113700;28;20039;-70
2022/03/26 09:31:42;;;;;;;5.63;2.30;;;15.20;59.20;;;;;;5113231;28;20130;-69
2022/03/26 09:34:08;;;;;;;5.57;2.60;;;15.20;59.20;;;;;;5113270;28;20473;-70
2022/03/26 09:36:34;;;;;;;4.28;2.20;;;15.30;59.20;;;;;;5113682;28;20089;-69
2022/03/26 09:39:00;;;;;;;4.90;2.50;;;15.40;59.10;;;;;;5113057;28;20075;-70
2022/03/26 09:41:27;;;;;;;4.07;2.22;;;15.40;59.10;;;;;;5113381;28;20044;-70
2022/03/26 09:43:54;;;;;;;2.83;1.65;;;15.50;59.10;;;;;;5112998;28;20404;-70
2022/03/26 09:46:20;;;;;;;3.75;2.03;;;15.60;59.10;;;;;;5113179;28;20125;-70
2022/03/26 09:48:46;;;;;;;4.25;2.15;;;15.60;59.10;;;;;;5095269;28;20081;-69
2022/03/26 09:51:15;;;;;;;4.10;2.33;;;15.70;59.00;;;;;;5112909;28;20039;-70
2022/03/26 09:53:41;;;;;;;5.30;2.47;;;15.70;59.00;;;;;;5112777;28;20035;-70
2022/03/26 09:56:07;;;;;;;5.60;2.55;;;15.70;59.00;;;;;;5112825;28;20047;-70
2022/03/26 09:58:33;;;;;;;5.43;2.60;;;15.70;59.00;;;;;;5112645;28;20080;-70
2022/03/26 10:00:59;;;;;;;5.78;2.83;;;15.80;59.00;;;;;;5112691;28;20043;-70
2022/03/26 10:03:25;;;;;;;4.15;2.25;;;15.80;59.00;;;;;;5112489;28;20044;-70
2022/03/26 10:06:03;;;;;;;3.85;2.00;;;15.90;59.00;;;;;;5113149;28;20599;-70
2022/03/26 10:08:29;;;;;;;3.88;1.92;;;16.10;59.00;;;;;;5094798;28;20046;-70
2022/03/26 10:10:55;;;;;;;4.00;2.10;;;16.00;58.80;;;;;;5112842;28;20081;-70
2022/03/26 10:13:36;;;;;;;3.13;1.67;;;16.10;58.80;;;;;;5113235;28;20055;-70
2022/03/26 10:16:07;;;;;;;;;;;16.10;58.70;;;;;;5112873;28;20035;-70
2022/03/26 10:18:38;;;;;;;2.55;1.58;;;16.20;58.70;;;;;;5112524;28;19911;-70
2022/03/26 10:21:08;;;;;;;3.38;1.80;;;16.20;58.70;;;;;;5112177;28;20039;-70
2022/03/26 10:23:35;;;;;;;3.58;1.83;;;16.20;58.60;;;;;;5093197;28;20087;-70
2022/03/26 10:26:14;;;;;;;3.38;1.88;;;16.30;58.50;;;;;;5116253;28;20059;-70
2022/03/26 10:28:41;;;;;;;4.20;1.83;;;16.30;58.60;;;;;;5116484;28;20040;-70
2022/03/26 10:34:03;;;;;;;3.03;1.92;;;16.30;58.40;;;;;;5116027;28;20105;-69
2022/03/26 10:36:29;;;;;;;3.70;1.85;;;16.40;58.30;;;;;;5115922;28;20046;-70
2022/03/26 10:38:55;;;;;;;3.47;1.90;;;16.40;58.30;;;;;;5115867;28;20435;-70
2022/03/26 10:41:21;;;;;;;2.80;1.58;;;16.40;58.30;;;;;;5115680;28;20511;-69
2022/03/26 10:43:47;;;;;;;3.03;1.70;;;16.50;58.20;;;;;;5116319;28;20046;-70
2022/03/26 10:46:22;;;;;;;3.42;2.08;;;16.50;58.10;;;;;;5115772;28;20047;-67
2022/03/26 10:49:01;;;;;;;3.63;1.80;;;16.60;58.10;;;;;;5097155;28;20474;-69
2022/03/26 10:51:35;;;;;;;3.28;1.60;;;16.70;57.80;;;;;;5116052;28;20491;-70
2022/03/26 10:54:09;;;;;;;2.97;1.73;;;16.90;57.70;;;;;;5115844;28;20040;-70
2022/03/26 10:56:37;;;;;;;3.40;1.88;;;16.90;57.50;;;;;;5116301;28;20036;-69
2022/03/26 10:59:03;;;;;;;3.92;1.73;;;17.00;57.30;;;;;;5097150;28;20085;-70
2022/03/26 11:01:28;;;;;;;2.15;1.63;;;17.00;57.20;;;;;;5115524;28;20043;-70
2022/03/26 11:03:54;;;;;;;3.50;1.63;;;17.10;57.20;;;;;;5115702;28;20113;-70
2022/03/26 11:06:25;;;;;;;2.45;1.60;;;17.20;57.00;;;;;;5116039;28;20043;-69
2022/03/26 11:08:59;;;;;;;1.25;1.00;;;17.30;56.90;;;;;;5111403;28;20036;-69
2022/03/26 11:11:28;;;;;;;1.60;1.27;;;17.40;56.80;;;;;;5115724;28;20390;-68
2022/03/26 11:13:58;;;;;;;1.58;1.15;;;17.50;56.60;;;;;;5115752;28;20027;-69
2022/03/26 11:16:35;;;;;;;1.30;1.08;;;17.70;56.50;;;;;;5095488;28;20044;-69
2022/03/26 11:19:30;;;;;;;2.45;1.52;;;17.70;56.20;;;;;;5115101;28;20048;-69
2022/03/26 11:22:12;;;;;;;2.17;1.48;;;17.70;56.10;;;;;;5096313;28;20048;-69
2022/03/26 11:24:59;;;;;;;1.33;1.00;;;17.70;56.10;;;;;;5111751;28;20067;-68
2022/03/26 11:27:50;;;;;;;1.92;1.25;;;17.70;56.20;;;;;;5115220;28;20119;-68
2022/03/26 11:30:27;;;;;;;2.28;1.20;;;17.80;56.20;;;;;;5097493;28;20048;-68
2022/03/26 11:32:55;;;;;;;2.15;1.35;;;17.80;56.10;;;;;;5115179;28;20477;-68
2022/03/26 11:35:21;;;;;;;3.22;1.20;;;18.00;56.00;;;;;;5095960;28;20047;-67
2022/03/26 11:38:01;;;;;;;2.55;1.42;;;18.00;55.70;;;;;;5115262;28;20035;-68
2022/03/26 11:40:55;;;;;;;2.83;1.42;;;18.10;55.60;;;;;;5115506;28;20051;-68
2022/03/26 11:43:52;;;;;;;1.48;1.27;;;18.20;55.50;;;;;;5114573;28;20042;-68
2022/03/26 11:52:25;;;;;;;2.80;1.60;;;18.30;55.00;;;;;;5100003;28;20059;-68
2022/03/26 11:54:59;;;;;;;4.18;2.00;;;18.30;54.70;;;;;;5113459;28;20519;-68
2022/03/26 11:57:26;;;;;;;3.67;2.03;;;18.50;54.60;;;;;;5115149;28;20118;-68
2022/03/26 11:59:53;;;;;;;2.85;1.80;;;18.60;54.40;;;;;;5114643;28;20092;-68
2022/03/26 12:02:23;;;;;;;3.58;1.88;;;18.80;54.30;;;;;;5114899;28;20114;-68
2022/03/26 12:04:53;;;;;;;2.85;1.70;;;18.80;54.00;;;;;;5114585;28;20049;-67
2022/03/26 12:07:22;;;;;;;3.03;1.65;;;19.00;53.90;;;;;;5114512;28;20046;-68
2022/03/26 12:10:03;;;;;;;3.60;2.00;;;19.00;53.70;;;;;;5114558;28;20545;-68
2022/03/26 12:12:45;;;;;;;3.22;1.83;;;19.00;53.50;;;;;;5096099;28;20488;-68
2022/03/26 12:15:25;;;;;;;3.10;1.55;;;19.10;53.40;;;;;;5114172;28;20043;-68
2022/03/26 12:18:09;;;;;;;3.58;1.80;;;19.20;53.20;;;;;;5114808;28;20040;-68
2022/03/26 12:20:48;;;;;;;3.03;1.60;;;19.30;53.30;;;;;;5114236;28;20035;-68
2022/03/26 12:23:25;;;;;;;1.88;1.40;;;19.50;53.00;;;;;;5114737;28;20051;-68
2022/03/26 12:25:54;;;;;;;3.03;1.50;;;19.60;52.80;;;;;;5114349;28;20043;-68
2022/03/26 12:28:33;;;;;;;1.88;1.38;;;19.70;52.50;;;;;;5113937;28;20044;-68
2022/03/26 12:31:04;;;;;;;3.22;1.77;;;19.80;52.40;;;;;;5096636;28;20044;-68
2022/03/26 12:33:53;;;;;;;2.60;1.50;;;19.80;52.20;;;;;;5114228;28;20122;-68
2022/03/26 12:36:21;;;;;;;3.13;1.73;;;19.80;52.20;;;;;;5114178;28;20036;-68
2022/03/26 12:38:49;;;;;;;2.58;1.40;;;19.90;52.20;;;;;;5114139;28;20454;-68
2022/03/26 12:41:15;;;;;;;2.72;1.58;;;19.90;52.00;;;;;;5114306;28;20043;-67
2022/03/26 12:43:51;;;;;;;2.67;1.38;;;20.00;51.90;;;;;;5113861;28;20043;-68
2022/03/26 12:46:17;;;;;;;1.92;1.30;;;20.00;51.90;;;;;;5114505;28;20114;-68
2022/03/26 12:48:42;;;;;;;1.70;1.23;;;20.00;51.70;;;;;;5114067;28;20062;-68
2022/03/26 12:51:08;;;;;;;3.80;1.50;;;20.00;51.80;;;;;;5113562;28;20536;-68
2022/03/26 12:53:37;;;;;;;3.38;1.48;;;20.10;51.70;;;;;;5094113;28;20512;-68
2022/03/26 12:56:08;;;;;;;2.13;1.20;;;20.10;51.50;;;;;;5113865;28;20039;-67
2022/03/26 13:01:21;;;;;;;1.42;1.08;;;20.20;51.40;;;;;;5113543;28;20044;-67
2022/03/26 13:03:47;;;;;;;1.27;1.00;;;20.20;51.40;;;;;;5113334;28;20059;-67
2022/03/26 13:06:16;;;;;;;2.08;1.10;;;20.10;51.30;;;;;;5113552;28;20056;-67
2022/03/26 13:08:57;;;;;;;1.77;1.10;;;20.20;51.20;;;;;;5113215;28;20043;-67